Time;durP1;ratioP1;P1;durP2;ratioP2;P2;SDS_P1;SDS_P2;PMS_P1;PMS_P2;Temp;Humidity;BMP_temperature;BMP_pressure;BME280_temperature;BME280_humidity;BME280_pressure;Samples;Min_cycle;Max_cycle;Signal;HPM_P1;HPM_P2
2020/12/14 00:01:08;;;;;;;12.60;6.93;;;;;;;5.39;85.54;100146.84;5027568;28;20420;-87
2020/12/14 00:03:35;;;;;;;13.80;7.35;;;;;;;5.40;85.83;100141.56;5034354;28;20049;-88
2020/12/14 00:06:02;;;;;;;12.52;7.63;;;;;;;5.35;85.49;100137.38;5031405;28;20064;-87
2020/12/14 00:08:28;;;;;;;11.85;7.20;;;;;;;5.23;85.99;100123.69;5033265;28;20092;-87
2020/12/14 00:10:56;;;;;;;12.20;7.60;;;;;;;5.31;86.42;100135.75;5039286;28;20470;-87
2020/12/14 00:13:24;;;;;;;11.35;8.05;;;;;;;5.25;85.89;100136.78;5043805;28;20073;-88
2020/12/14 00:15:52;;;;;;;14.75;8.32;;;;;;;5.28;86.38;100134.91;5035518;28;20096;-86
2020/12/14 00:18:20;;;;;;;13.90;8.27;;;;;;;5.17;86.46;100121.25;5044702;28;20397;-86
2020/12/14 00:20:47;;;;;;;13.52;8.77;;;;;;;5.18;86.62;100124.75;5026940;28;20132;-87
2020/12/14 00:23:14;;;;;;;14.77;8.48;;;;;;;5.12;86.73;100124.91;5045900;28;20074;-87
2020/12/14 00:25:40;;;;;;;13.90;8.43;;;;;;;5.05;86.75;100137.34;5044335;28;20061;-86
2020/12/14 00:28:07;;;;;;;14.63;8.63;;;;;;;5.04;86.86;100127.75;5041359;28;20157;-86
2020/12/14 00:30:33;;;;;;;15.95;9.23;;;;;;;4.99;86.66;100127.03;5054142;28;20072;-87
2020/12/14 00:33:00;;;;;;;16.67;9.40;;;;;;;4.95;86.71;100130.63;5058186;28;20038;-85
2020/12/14 00:35:27;;;;;;;13.85;8.70;;;;;;;4.92;87.02;100130.72;5048783;28;20073;-86
2020/12/14 00:37:53;;;;;;;17.15;9.57;;;;;;;4.83;86.92;100126.59;5051097;28;20053;-87
2020/12/14 00:40:20;;;;;;;14.45;9.07;;;;;;;4.81;87.24;100123.16;5038389;28;20387;-86
2020/12/14 00:42:46;;;;;;;14.93;9.48;;;;;;;4.77;87.32;100104.91;5045977;28;20057;-87
2020/12/14 00:45:13;;;;;;;17.10;9.38;;;;;;;4.76;87.28;100108.44;5038802;28;20084;-86
2020/12/14 00:47:39;;;;;;;16.88;9.57;;;;;;;4.73;87.62;100114.63;5032126;28;20133;-85
2020/12/14 00:50:06;;;;;;;15.50;8.68;;;;;;;4.71;87.92;100121.72;5030184;28;20077;-85
2020/12/14 00:52:32;;;;;;;15.98;8.77;;;;;;;4.70;87.76;100116.50;5031875;28;20072;-86
2020/12/14 00:54:59;;;;;;;17.10;9.25;;;;;;;4.66;88.02;100117.47;5022416;28;20140;-86
2020/12/14 00:57:26;;;;;;;15.27;9.18;;;;;;;4.63;87.65;100096.56;5045145;28;20215;-86
2020/12/14 00:59:52;;;;;;;15.52;9.07;;;;;;;4.64;88.21;100098.28;5036259;28;20422;-86
2020/12/14 01:02:22;;;;;;;15.35;8.93;;;;;;;4.64;88.03;100095.69;5043501;28;20045;-86
2020/12/14 01:04:51;;;;;;;14.98;9.18;;;;;;;4.67;88.34;100100.84;5038905;28;20113;-87
2020/12/14 01:07:17;;;;;;;14.98;9.07;;;;;;;4.70;88.29;100093.75;5041987;28;20026;-86
2020/12/14 01:09:44;;;;;;;13.80;8.88;;;;;;;4.71;88.12;100087.59;5041763;28;20052;-86
2020/12/14 01:12:12;;;;;;;17.77;10.02;;;;;;;4.79;87.72;100092.63;5048546;28;20046;-87
2020/12/14 01:14:38;;;;;;;15.50;8.82;;;;;;;4.84;87.95;100099.47;5045789;28;20049;-86
2020/12/14 01:17:04;;;;;;;14.88;9.43;;;;;;;4.91;87.49;100100.13;5039773;28;20105;-86
2020/12/14 01:19:31;;;;;;;14.35;9.32;;;;;;;4.94;87.35;100102.69;5025218;28;20492;-86
2020/12/14 01:21:58;;;;;;;16.27;9.80;;;;;;;4.99;87.26;100108.66;5041915;28;20060;-86
2020/12/14 01:24:25;;;;;;;15.23;9.63;;;;;;;4.97;87.29;100101.75;5041055;28;20219;-86
2020/12/14 01:26:51;;;;;;;15.75;8.98;;;;;;;4.99;87.05;100119.16;5050133;28;20065;-88
2020/12/14 01:29:20;;;;;;;14.15;9.20;;;;;;;5.01;87.46;100116.50;5048257;28;20311;-87
2020/12/14 01:31:46;;;;;;;17.23;9.73;;;;;;;5.03;86.98;100110.31;5032023;28;20354;-86
2020/12/14 01:34:13;;;;;;;14.90;8.90;;;;;;;5.07;87.44;100118.94;5034196;28;20053;-87
2020/12/14 01:36:40;;;;;;;15.30;9.52;;;;;;;5.12;87.51;100125.78;5048318;28;20064;-87
2020/12/14 01:39:06;;;;;;;16.75;10.27;;;;;;;5.15;87.67;100127.47;5036470;28;20050;-86
2020/12/14 01:41:33;;;;;;;14.23;9.70;;;;;;;5.19;87.42;100119.47;5037742;28;20069;-84
2020/12/14 01:44:01;;;;;;;16.25;9.50;;;;;;;5.27;87.09;100121.84;5037207;28;20503;-87
2020/12/14 01:46:31;;;;;;;16.08;9.15;;;;;;;5.31;87.05;100125.25;5027336;28;20052;-88
2020/12/14 01:49:00;;;;;;;17.45;9.27;;;;;;;5.34;86.72;100122.53;5021242;28;20072;-85
2020/12/14 01:51:30;;;;;;;15.20;9.30;;;;;;;5.37;86.90;100119.78;5028064;28;20069;-85
2020/12/14 01:54:06;;;;;;;16.17;8.50;;;;;;;5.38;86.31;100108.38;5030390;28;20054;-86
2020/12/14 01:56:32;;;;;;;15.38;8.27;;;;;;;5.37;86.22;100101.41;5038634;28;20492;-87
2020/12/14 01:59:07;;;;;;;14.15;8.38;;;;;;;5.36;86.73;100090.03;5025682;28;20049;-86
2020/12/14 02:01:33;;;;;;;14.15;8.27;;;;;;;5.39;86.32;100094.34;5033726;28;20049;-86
2020/12/14 02:04:02;;;;;;;13.13;7.68;;;;;;;5.43;86.16;100086.34;5032795;28;20046;-86
2020/12/14 02:06:29;;;;;;;13.48;8.05;;;;;;;5.36;85.67;100073.44;5031752;28;20056;-86
2020/12/14 02:08:56;;;;;;;9.55;6.90;;;;;;;5.42;86.17;100089.00;5022272;28;20070;-86
2020/12/14 02:11:22;;;;;;;11.88;6.82;;;;;;;5.44;85.40;100095.06;5039089;28;20061;-85
2020/12/14 02:13:49;;;;;;;8.93;5.90;;;;;;;5.49;84.98;100101.06;5036646;28;20045;-86
2020/12/14 02:16:18;;;;;;;10.80;6.32;;;;;;;5.54;85.08;100097.34;5042165;28;20062;-85
2020/12/14 02:18:45;;;;;;;10.85;6.70;;;;;;;5.56;84.64;100102.56;5042989;28;20099;-88
2020/12/14 02:21:16;;;;;;;10.90;6.57;;;;;;;5.48;84.01;100094.09;5064358;28;20048;-87
2020/12/14 02:23:43;;;;;;;9.98;6.05;;;;;;;5.45;84.01;100091.53;5065334;28;20116;-87
2020/12/14 02:26:10;;;;;;;10.38;6.78;;;;;;;5.51;84.38;100094.81;5029539;28;20053;-87
2020/12/14 02:28:38;;;;;;;9.38;6.22;;;;;;;5.51;84.01;100084.31;5033997;28;20510;-87
2020/12/14 02:31:08;;;;;;;;;;;;;;;5.55;83.92;100093.81;5023794;28;20045;-86
2020/12/14 02:33:35;;;;;;;9.77;6.70;;;;;;;5.59;83.78;100089.34;5023086;28;19922;-86
2020/12/14 02:36:01;;;;;;;9.15;6.28;;;;;;;5.57;83.80;100088.53;5035979;28;20060;-88
2020/12/14 02:38:27;;;;;;;10.32;6.47;;;;;;;5.57;83.84;100083.28;5032513;28;20099;-86
2020/12/14 02:41:03;;;;;;;9.75;6.10;;;;;;;5.54;83.55;100062.34;5029201;28;20046;-86
2020/12/14 02:43:30;;;;;;;8.15;5.82;;;;;;;5.58;83.55;100067.47;5025814;28;20054;-88
2020/12/14 02:45:56;;;;;;;9.52;6.15;;;;;;;5.53;83.36;100058.00;5021065;28;20046;-87
2020/12/14 02:48:22;;;;;;;8.73;5.60;;;;;;;5.58;83.38;100066.59;5033949;28;20053;-87
2020/12/14 02:50:50;;;;;;;12.10;6.80;;;;;;;5.55;82.84;100069.31;5025253;28;20050;-86
2020/12/14 02:53:17;;;;;;;9.30;6.43;;;;;;;5.53;82.62;100072.00;5019325;28;20458;-86
2020/12/14 02:55:43;;;;;;;9.18;6.43;;;;;;;5.53;83.07;100074.63;5035303;28;20084;-86
2020/12/14 02:58:11;;;;;;;10.25;6.53;;;;;;;5.53;82.69;100055.38;5025100;28;20140;-86
2020/12/14 03:00:37;;;;;;;10.13;6.60;;;;;;;5.50;82.29;100060.75;5018067;28;20064;-86
2020/12/14 03:03:04;;;;;;;9.00;6.00;;;;;;;5.49;82.83;100064.28;5016214;28;20076;-87
2020/12/14 03:05:34;;;;;;;9.25;6.35;;;;;;;5.48;83.20;100065.19;5027890;28;20049;-87
2020/12/14 03:08:00;;;;;;;8.90;6.35;;;;;;;5.47;82.48;100066.09;5019969;28;20053;-87
2020/12/14 03:10:27;;;;;;;9.73;6.25;;;;;;;5.46;82.78;100064.38;5020873;28;20046;-86
2020/12/14 03:13:03;;;;;;;8.20;6.20;;;;;;;5.44;82.84;100064.41;5019709;28;20050;-87
2020/12/14 03:15:33;;;;;;;8.88;6.60;;;;;;;5.44;83.36;100063.56;5020850;28;20049;-86
2020/12/14 03:17:59;;;;;;;9.52;6.90;;;;;;;5.41;83.56;100056.63;5030764;28;20034;-87
2020/12/14 03:20:25;;;;;;;13.05;7.10;;;;;;;5.48;83.28;100063.44;5034333;28;20047;-87
2020/12/14 03:22:52;;;;;;;9.70;6.95;;;;;;;5.49;83.49;100059.03;5033772;28;20087;-87
2020/12/14 03:25:19;;;;;;;10.30;7.22;;;;;;;5.52;83.49;100069.41;5048060;28;20042;-87
2020/12/14 03:27:45;;;;;;;12.10;7.57;;;;;;;5.52;83.59;100075.53;5054035;28;20069;-88
2020/12/14 03:30:12;;;;;;;11.82;6.85;;;;;;;5.55;83.06;100070.19;5033672;28;20042;-89
2020/12/14 03:32:42;;;;;;;11.45;7.05;;;;;;;5.52;83.16;100074.66;5031190;28;20057;-87
2020/12/14 03:35:08;;;;;;;10.43;7.43;;;;;;;5.37;83.10;100048.91;5032759;28;20049;-87
2020/12/14 03:37:35;;;;;;;11.05;7.47;;;;;;;5.35;82.97;100058.59;5021907;28;20054;-87
2020/12/14 03:40:02;;;;;;;10.95;7.53;;;;;;;5.28;83.48;100056.16;5024818;28;20061;-87
2020/12/14 03:42:29;;;;;;;9.93;7.25;;;;;;;5.34;83.87;100083.16;5051419;28;20121;-87
2020/12/14 03:44:57;;;;;;;10.75;7.47;;;;;;;5.28;84.07;100071.91;5040971;28;20053;-87
2020/12/14 03:47:29;;;;;;;9.68;7.20;;;;;;;5.26;84.27;100076.34;5034889;28;20050;-87
2020/12/14 03:49:57;;;;;;;10.68;7.68;;;;;;;5.19;84.50;100069.59;5033071;28;20050;-87
2020/12/14 03:52:25;;;;;;;10.52;7.22;;;;;;;5.11;84.43;100063.69;5053062;28;20049;-87
2020/12/14 03:54:52;;;;;;;12.00;8.10;;;;;;;5.11;84.66;100065.44;5052753;28;20053;-86
2020/12/14 03:57:21;;;;;;;10.15;6.80;;;;;;;5.11;84.95;100076.81;5056065;28;20049;-87
2020/12/14 03:59:50;;;;;;;10.23;7.60;;;;;;;5.10;85.36;100071.59;5055734;28;20025;-87
2020/12/14 04:02:16;;;;;;;11.50;7.45;;;;;;;5.12;85.25;100078.53;5043262;28;20034;-86
2020/12/14 04:04:46;;;;;;;9.68;7.57;;;;;;;5.12;85.54;100077.66;5039970;28;20051;-87
2020/12/14 04:07:18;;;;;;;10.23;7.60;;;;;;;5.18;85.16;100080.13;5036151;28;20049;-87
2020/12/14 04:09:44;;;;;;;13.43;7.65;;;;;;;5.22;85.21;100072.09;5022341;28;20477;-88
2020/12/14 04:12:11;;;;;;;12.45;7.45;;;;;;;5.30;84.59;100079.75;5023059;28;20054;-88
2020/12/14 04:14:44;;;;;;;11.35;7.80;;;;;;;5.33;84.16;100074.41;5026587;28;20050;-87
2020/12/14 04:17:12;;;;;;;10.35;7.53;;;;;;;5.35;84.38;100075.22;5029648;28;20054;-86
2020/12/14 04:19:39;;;;;;;11.75;7.55;;;;;;;5.37;84.45;100067.28;5048712;28;20079;-86
2020/12/14 04:22:09;;;;;;;8.45;6.80;;;;;;;5.38;84.21;100061.13;5023903;28;20100;-87
2020/12/14 04:24:41;;;;;;;10.90;6.85;;;;;;;5.43;84.00;100064.47;5046987;28;20056;-87
2020/12/14 04:27:10;;;;;;;10.05;7.60;;;;;;;5.47;83.74;100079.22;5053119;28;20113;-87
2020/12/14 04:29:37;;;;;;;11.57;7.05;;;;;;;5.44;84.06;100077.56;5032697;28;20037;-88
2020/12/14 04:32:03;;;;;;;12.38;7.60;;;;;;;5.47;83.79;100071.34;5041041;28;20049;-87
2020/12/14 04:34:30;;;;;;;10.98;7.65;;;;;;;5.48;83.65;100078.31;5037869;28;20049;-87
2020/12/14 04:36:56;;;;;;;11.00;7.43;;;;;;;5.46;83.80;100074.88;5038123;28;20055;-87
2020/12/14 04:39:25;;;;;;;9.43;6.68;;;;;;;5.41;83.62;100071.53;5038224;28;20487;-86
2020/12/14 04:41:56;;;;;;;10.18;6.55;;;;;;;5.37;83.37;100064.66;5040317;28;20064;-87
2020/12/14 04:44:28;;;;;;;8.65;6.65;;;;;;;5.29;84.12;100073.63;5024666;28;20428;-86
2020/12/14 04:46:56;;;;;;;10.00;6.35;;;;;;;5.33;84.03;100079.66;5021544;28;20042;-87
2020/12/14 04:49:23;;;;;;;8.40;6.25;;;;;;;5.29;83.58;100071.00;5034214;28;20041;-87
2020/12/14 04:51:51;;;;;;;9.57;6.90;;;;;;;5.33;83.86;100079.66;5031436;28;20053;-86
2020/12/14 04:54:19;;;;;;;10.75;7.72;;;;;;;5.34;83.46;100081.38;5034148;28;20045;-87
2020/12/14 04:56:50;;;;;;;9.73;7.05;;;;;;;5.29;83.55;100078.88;5030417;28;20443;-87
2020/12/14 04:59:23;;;;;;;10.65;8.05;;;;;;;5.20;83.62;100073.03;5028230;28;20464;-87
2020/12/14 05:01:50;;;;;;;14.35;8.25;;;;;;;5.18;83.82;100091.47;5030847;28;20108;-86
2020/12/14 05:04:17;;;;;;;12.02;7.93;;;;;;;5.08;83.68;100086.53;5038941;28;20057;-87
2020/12/14 05:06:52;;;;;;;10.15;7.78;;;;;;;4.92;84.67;100078.25;5040969;28;20776;-87
2020/12/14 05:09:20;;;;;;;11.75;8.23;;;;;;;4.85;85.49;100079.34;5033549;28;20136;-87
2020/12/14 05:11:48;;;;;;;11.85;8.43;;;;;;;4.82;85.76;100082.06;5026066;28;20568;-87
2020/12/14 05:14:16;;;;;;;12.65;8.32;;;;;;;4.85;85.93;100089.84;5055013;28;20041;-86
2020/12/14 05:16:42;;;;;;;19.00;8.65;;;;;;;4.83;86.06;100084.63;5030433;28;20052;-87
2020/12/14 05:19:18;;;;;;;10.77;8.00;;;;;;;4.87;85.63;100088.91;5046679;28;20073;-88
2020/12/14 05:21:53;;;;;;;10.80;8.45;;;;;;;4.90;85.84;100075.66;5035670;28;20121;-88
2020/12/14 05:24:27;;;;;;;13.52;8.05;;;;;;;4.88;86.33;100080.09;5035264;28;20455;-85
2020/12/14 05:26:57;;;;;;;12.73;7.85;;;;;;;4.88;86.51;100089.72;5040797;28;20045;-87
2020/12/14 05:29:28;;;;;;;14.18;8.55;;;;;;;4.86;86.74;100078.44;5026758;28;20053;-86
2020/12/14 05:32:11;;;;;;;13.73;9.50;;;;;;;4.86;86.33;100078.44;5028797;28;20041;-86
2020/12/14 05:34:47;;;;;;;12.45;8.80;;;;;;;4.85;86.01;100079.34;5030053;28;20054;-86
2020/12/14 05:37:15;;;;;;;13.57;8.27;;;;;;;4.85;86.15;100076.72;5034601;28;20064;-87
2020/12/14 05:39:43;;;;;;;14.90;8.98;;;;;;;4.86;86.44;100074.06;5043062;28;20053;-87
2020/12/14 05:42:18;;;;;;;13.10;7.93;;;;;;;4.85;86.31;100063.59;5019115;28;20072;-88
2020/12/14 05:44:52;;;;;;;11.88;7.78;;;;;;;4.84;86.02;100068.00;5028759;28;20065;-88
2020/12/14 05:47:29;;;;;;;9.90;7.00;;;;;;;4.81;86.59;100070.69;5035891;28;20443;-87
2020/12/14 05:50:00;;;;;;;8.98;6.43;;;;;;;4.83;86.51;100082.00;5033355;28;20050;-88
2020/12/14 05:52:31;;;;;;;9.32;6.47;;;;;;;4.89;85.85;100083.56;5030224;28;21331;-87
2020/12/14 05:54:58;;;;;;;10.10;7.00;;;;;;;4.87;85.76;100088.03;5021883;28;20060;-87
2020/12/14 05:57:34;;;;;;;10.95;7.85;;;;;;;4.89;85.51;100096.69;5022925;28;20148;-87
2020/12/14 06:00:06;;;;;;;14.13;8.57;;;;;;;4.89;85.44;100091.44;5025126;28;20124;-88
2020/12/14 06:02:33;;;;;;;13.98;8.98;;;;;;;4.94;85.86;100107.94;5040239;28;20073;-88
2020/12/14 06:05:02;;;;;;;12.45;8.80;;;;;;;4.90;85.18;100101.91;5026199;28;20060;-88
2020/12/14 06:07:34;;;;;;;15.27;8.85;;;;;;;4.88;85.24;100110.72;5029742;28;20053;-88
2020/12/14 06:10:11;;;;;;;12.68;8.98;;;;;;;4.92;85.35;100115.84;5031612;28;20029;-86
2020/12/14 06:12:46;;;;;;;12.48;8.10;;;;;;;4.93;86.02;100107.06;5042713;28;20151;-88
2020/12/14 06:15:16;;;;;;;;;;;;;;;4.97;86.12;100105.22;5050986;28;20045;-86
2020/12/14 06:17:47;;;;;;;12.10;8.53;;;;;;;5.01;85.82;100108.63;5035965;28;20001;-87
2020/12/14 06:20:22;;;;;;;;;;;;;;;5.00;85.51;100104.28;5036132;28;20485;-87
2020/12/14 06:23:01;;;;;;;12.45;8.73;;;;;;;4.96;86.03;100100.88;5058159;28;19928;-88
2020/12/14 06:25:28;;;;;;;12.45;8.43;;;;;;;4.95;85.38;100107.03;5047426;28;20045;-87
2020/12/14 06:27:55;;;;;;;11.38;8.13;;;;;;;4.97;85.92;100096.50;5042602;28;20072;-88
2020/12/14 06:30:30;;;;;;;13.05;8.32;;;;;;;4.98;85.80;100103.47;5039061;28;20049;-85
2020/12/14 06:33:12;;;;;;;10.80;8.27;;;;;;;4.94;86.07;100095.66;5045718;28;20046;-87
2020/12/14 06:35:49;;;;;;;13.60;9.07;;;;;;;4.97;85.70;100094.72;5034008;28;20057;-87
2020/12/14 06:38:50;;;;;;;13.32;9.55;;;;;;;5.00;85.98;100092.03;5044510;28;20045;-86
2020/12/14 06:41:24;;;;;;;10.98;8.13;;;;;;;5.03;85.95;100089.31;5025700;28;20061;-85
2020/12/14 06:44:19;;;;;;;11.70;7.57;;;;;;;5.08;85.56;100092.63;5046216;28;20048;-87
2020/12/14 06:46:47;;;;;;;9.27;6.80;;;;;;;5.14;85.34;100084.59;5032092;28;20121;-87
2020/12/14 06:49:28;;;;;;;8.32;6.28;;;;;;;5.27;84.18;100093.81;5049449;28;20045;-88
2020/12/14 06:51:54;;;;;;;;;;;;;;;5.34;83.71;100097.13;5046765;28;20049;-87
2020/12/14 06:54:47;;;;;;;7.78;6.20;;;;;;;5.39;83.15;100096.97;5024542;28;20004;-87
2020/12/14 06:57:35;;;;;;;11.07;6.55;;;;;;;5.44;82.38;100103.81;5029182;28;20076;-89
2020/12/14 07:00:05;;;;;;;8.85;6.25;;;;;;;5.45;82.66;100107.31;5038934;28;20069;-87
2020/12/14 07:02:39;;;;;;;9.68;6.50;;;;;;;5.50;82.40;100111.50;5027917;28;20045;-87
2020/12/14 07:05:28;;;;;;;10.23;6.30;;;;;;;5.58;82.45;100109.50;5038881;28;20051;-86
2020/12/14 07:07:55;;;;;;;12.50;6.30;;;;;;;5.62;82.28;100105.88;5034154;28;20045;-87
2020/12/14 07:10:28;;;;;;;8.95;6.43;;;;;;;5.72;81.82;100113.44;5045003;28;20045;-88
2020/12/14 07:12:55;;;;;;;8.82;6.60;;;;;;;5.76;81.38;100115.94;5029456;28;20042;-87
2020/12/14 07:15:39;;;;;;;11.77;6.50;;;;;;;5.79;81.39;100115.00;5039230;28;20049;-86
2020/12/14 07:18:10;;;;;;;12.52;6.53;;;;;;;5.77;81.64;100115.03;5044420;28;20041;-87
2020/12/14 07:21:03;;;;;;;8.45;6.30;;;;;;;5.76;81.30;100109.81;5043107;28;20053;-86
2020/12/14 07:23:32;;;;;;;9.85;7.05;;;;;;;5.82;81.67;100107.00;5038046;28;20056;-86
2020/12/14 07:26:03;;;;;;;10.23;7.00;;;;;;;5.84;81.54;100118.31;5031787;28;20057;-86
2020/12/14 07:28:37;;;;;;;9.40;6.90;;;;;;;5.84;82.27;100111.28;5037713;28;20045;-86
2020/12/14 07:31:11;;;;;;;11.88;6.65;;;;;;;5.88;82.18;100115.56;5028411;28;20042;-86
2020/12/14 07:33:40;;;;;;;9.60;6.88;;;;;;;5.93;81.35;100113.66;5039617;28;20109;-85
2020/12/14 07:36:11;;;;;;;9.63;6.55;;;;;;;5.95;81.23;100117.13;5039422;28;20128;-86
2020/12/14 07:38:46;;;;;;;8.13;6.10;;;;;;;6.00;80.90;100119.56;5051683;28;20060;-87
2020/12/14 07:41:14;;;;;;;9.45;6.45;;;;;;;6.01;80.55;100120.44;5044024;28;20054;-86
2020/12/14 07:43:49;;;;;;;15.07;6.82;;;;;;;5.99;80.60;100123.09;5048706;28;20089;-86
2020/12/14 07:46:24;;;;;;;10.95;6.38;;;;;;;5.99;81.08;100123.97;5056909;28;20037;-85
2020/12/14 07:48:56;;;;;;;11.63;7.13;;;;;;;5.99;80.73;100128.34;5054434;28;20041;-84
2020/12/14 07:51:23;;;;;;;10.50;6.57;;;;;;;6.04;80.66;100122.97;5051651;28;20053;-86
2020/12/14 07:54:24;;;;;;;11.43;6.18;;;;;;;6.05;80.63;100136.06;5053355;28;20049;-85
2020/12/14 07:57:00;;;;;;;10.23;7.28;;;;;;;6.15;80.45;100134.84;5048809;28;20049;-86
2020/12/14 07:59:30;;;;;;;14.73;7.72;;;;;;;6.16;80.09;100135.69;5037690;28;20441;-85
2020/12/14 08:01:58;;;;;;;11.93;7.75;;;;;;;6.13;80.59;100131.44;5030718;28;20050;-87
2020/12/14 08:04:38;;;;;;;10.07;7.75;;;;;;;6.15;80.31;100133.97;5037064;28;20045;-87
2020/12/14 08:07:18;;;;;;;12.43;7.93;;;;;;;6.17;80.20;100126.91;5038343;28;20044;-88
2020/12/14 08:09:57;;;;;;;12.85;7.40;;;;;;;6.20;79.62;100135.56;5034193;28;20050;-89
2020/12/14 08:12:43;;;;;;;12.80;7.68;;;;;;;6.06;80.23;100097.50;5031017;28;20630;-85
2020/12/14 08:15:15;;;;;;;11.60;8.05;;;;;;;6.15;79.96;100115.56;5032097;28;20049;-86
2020/12/14 08:17:47;;;;;;;10.00;7.05;;;;;;;6.26;79.33;100131.88;5031000;28;20058;-87
2020/12/14 08:20:28;;;;;;;12.10;7.88;;;;;;;6.30;79.79;100129.06;5039316;28;20054;-87
2020/12/14 08:22:58;;;;;;;13.75;7.60;;;;;;;6.42;79.19;100146.22;5048280;28;20137;-84
2020/12/14 08:25:32;;;;;;;11.57;7.22;;;;;;;6.44;78.72;100147.03;5028534;28;20049;-87
2020/12/14 08:28:07;;;;;;;11.43;6.65;;;;;;;6.45;78.33;100153.16;5025208;28;20129;-86
2020/12/14 08:30:34;;;;;;;9.05;6.95;;;;;;;6.43;78.71;100147.09;5035172;28;20053;-87
2020/12/14 08:33:13;;;;;;;15.00;7.27;;;;;;;6.42;78.77;100153.25;5019692;28;20050;-87
2020/12/14 08:35:45;;;;;;;13.38;7.65;;;;;;;6.48;78.09;100156.50;5030622;28;20494;-87
2020/12/14 08:38:19;;;;;;;14.55;7.82;;;;;;;6.48;78.63;100148.63;5031461;28;20523;-85
2020/12/14 08:41:06;;;;;;;14.10;7.20;;;;;;;6.47;78.80;100144.28;5027624;28;20109;-86
2020/12/14 08:43:35;;;;;;;11.57;7.47;;;;;;;6.44;78.67;100135.66;5036386;28;20155;-85
2020/12/14 08:46:16;;;;;;;12.85;7.75;;;;;;;6.50;78.42;100145.94;5020451;28;20053;-86
2020/12/14 08:48:51;;;;;;;15.27;8.20;;;;;;;6.53;78.60;100148.47;5025880;28;20061;-86
2020/12/14 08:51:31;;;;;;;12.05;7.60;;;;;;;6.56;78.64;100157.13;5034220;28;20128;-88
2020/12/14 08:54:12;;;;;;;12.65;8.30;;;;;;;6.58;78.78;100155.31;5025337;28;20056;-88
2020/12/14 08:56:41;;;;;;;16.85;8.55;;;;;;;6.61;78.87;100160.44;5036887;28;20489;-87
2020/12/14 08:59:27;;;;;;;10.95;8.07;;;;;;;6.63;78.76;100157.75;5038278;28;20428;-86
2020/12/14 09:02:04;;;;;;;9.65;7.18;;;;;;;6.65;78.14;100154.16;5030702;28;20065;-87
2020/12/14 09:04:40;;;;;;;10.52;7.20;;;;;;;6.73;78.02;100163.59;5034370;28;20503;-88
2020/12/14 09:07:22;;;;;;;14.05;8.10;;;;;;;6.78;78.05;100174.78;5016224;28;20060;-89
2020/12/14 09:09:51;;;;;;;12.98;7.70;;;;;;;6.77;78.00;100168.66;5026877;28;20042;-87
2020/12/14 09:12:20;;;;;;;12.98;7.70;;;;;;;6.86;77.59;100170.13;5033812;28;20073;-86
2020/12/14 09:14:48;;;;;;;12.35;7.40;;;;;;;6.86;77.64;100170.13;5041162;28;20076;-86
2020/12/14 09:17:18;;;;;;;13.30;8.15;;;;;;;6.86;77.42;100164.88;5036928;28;20053;-87
2020/12/14 09:19:51;;;;;;;10.88;8.02;;;;;;;6.93;77.22;100166.34;5042005;28;20041;-87
2020/12/14 09:22:25;;;;;;;16.45;11.60;;;;;;;7.01;76.92;100183.59;5049653;28;20045;-88
2020/12/14 09:24:54;;;;;;;9.93;8.32;;;;;;;6.87;76.74;100154.28;5055903;28;20108;-86
2020/12/14 09:27:21;;;;;;;14.43;9.02;;;;;;;6.88;76.85;100157.78;5030975;28;20660;-87
2020/12/14 09:30:04;;;;;;;11.65;7.72;;;;;;;6.96;76.91;100172.38;5042946;28;20113;-90
2020/12/14 09:32:55;;;;;;;13.55;7.82;;;;;;;6.87;76.75;100172.72;5039833;28;20040;-89
2020/12/14 09:35:23;;;;;;;14.52;7.95;;;;;;;6.85;76.97;100164.00;5025146;28;20049;-88
2020/12/14 09:37:55;;;;;;;12.30;8.60;;;;;;;6.85;77.07;100157.88;5038540;28;20038;-85
2020/12/14 09:40:31;;;;;;;13.55;7.47;;;;;;;6.94;76.85;100170.69;5033840;28;20148;-88
2020/12/14 09:43:01;;;;;;;11.60;7.43;;;;;;;6.92;76.33;100159.41;5038258;28;20569;-90
2020/12/14 09:45:32;;;;;;;10.48;6.50;;;;;;;7.14;76.05;100183.16;5039423;28;20137;-88
2020/12/14 09:48:03;;;;;;;12.30;7.28;;;;;;;7.05;75.71;100163.31;5032739;28;20050;-89
2020/12/14 09:50:32;;;;;;;9.18;6.75;;;;;;;7.11;75.04;100154.31;5025628;28;20053;-87
2020/12/14 09:53:03;;;;;;;11.18;6.78;;;;;;;7.32;74.85;100185.13;5038313;28;20059;-87
2020/12/14 09:55:33;;;;;;;11.73;6.45;;;;;;;7.25;74.43;100163.41;5034318;28;20052;-88
2020/12/14 09:58:04;;;;;;;10.02;6.43;;;;;;;7.23;74.18;100149.47;5022237;28;20100;-88
2020/12/14 10:00:34;;;;;;;9.15;6.72;;;;;;;7.20;74.18;100144.31;5038644;28;20046;-87
2020/12/14 10:03:06;;;;;;;8.80;6.65;;;;;;;7.16;74.53;100145.31;5036715;28;20100;-88
2020/12/14 10:05:49;;;;;;;13.70;7.15;;;;;;;7.13;74.70;100134.91;5029118;28;20111;-87
2020/12/14 10:08:16;;;;;;;12.52;6.90;;;;;;;7.17;74.76;100149.69;5021636;28;20190;-87
2020/12/14 10:11:11;;;;;;;14.68;7.22;;;;;;;7.12;74.75;100140.22;5024386;28;20044;-86
2020/12/14 10:13:43;;;;;;;10.55;7.18;;;;;;;7.15;74.93;100148.00;5021180;28;20054;-85
2020/12/14 10:16:13;;;;;;;13.40;8.30;;;;;;;7.18;74.87;100146.13;5027031;28;20105;-89
2020/12/14 10:18:47;;;;;;;11.52;7.28;;;;;;;7.21;74.88;100159.19;5041455;28;20049;-88
2020/12/14 10:21:20;;;;;;;12.43;7.10;;;;;;;7.33;74.30;100161.38;5034533;28;20178;-88
2020/12/14 10:23:48;;;;;;;10.13;7.63;;;;;;;7.38;74.75;100156.78;5023552;28;20054;-88
2020/12/14 10:26:27;;;;;;;12.85;7.50;;;;;;;7.31;73.59;100131.59;5042540;28;20045;-87
2020/12/14 10:28:55;;;;;;;11.75;7.38;;;;;;;7.33;73.65;100137.66;5045660;28;20042;-87
2020/12/14 10:31:36;;;;;;;12.10;7.93;;;;;;;7.31;74.13;100136.00;5024919;28;20112;-87
2020/12/14 10:34:05;;;;;;;12.10;7.75;;;;;;;7.31;73.76;100121.03;5040896;28;20077;-86
2020/12/14 10:36:35;;;;;;;9.15;6.85;;;;;;;7.53;72.78;100128.13;5041871;28;20146;-87
2020/12/14 10:39:03;;;;;;;10.52;6.40;;;;;;;7.51;71.97;100122.06;5073475;28;20049;-87
2020/12/14 10:41:31;;;;;;;8.75;6.28;;;;;;;7.74;72.20;100140.47;5067415;28;20088;-86
2020/12/14 10:44:13;;;;;;;8.88;6.50;;;;;;;7.88;71.43;100127.59;5038388;28;20053;-89
2020/12/14 10:46:42;;;;;;;7.32;6.40;;;;;;;8.13;70.42;100143.28;5038543;28;20131;-88
2020/12/14 10:49:12;;;;;;;8.98;6.80;;;;;;;8.09;70.41;100123.22;5044848;28;20053;-87
2020/12/14 10:51:47;;;;;;;10.13;6.97;;;;;;;8.23;70.35;100143.75;5044095;28;20076;-89
2020/12/14 10:54:22;;;;;;;11.93;6.05;;;;;;;8.09;70.48;100116.19;5033122;28;20093;-88
2020/12/14 10:56:53;;;;;;;7.97;5.30;;;;;;;8.13;70.09;100126.59;5041545;28;20053;-88
2020/12/14 10:59:21;;;;;;;7.75;5.85;;;;;;;8.15;70.12;100116.84;5040690;28;20106;-89
2020/12/14 11:01:51;;;;;;;7.97;5.30;;;;;;;8.19;69.63;100134.25;5046034;28;20046;-89
2020/12/14 11:04:19;;;;;;;7.70;5.32;;;;;;;8.02;69.68;100109.47;5036615;28;20056;-89
2020/12/14 11:06:46;;;;;;;7.07;5.60;;;;;;;8.01;70.06;100113.00;5039427;28;20053;-89
2020/12/14 11:09:14;;;;;;;10.02;5.53;;;;;;;8.00;70.30;100111.28;5034037;28;20042;-90
2020/12/14 11:11:43;;;;;;;9.02;6.20;;;;;;;8.15;70.33;100122.13;5031120;28;20069;-88
2020/12/14 11:14:24;;;;;;;8.48;5.15;;;;;;;8.27;70.01;100118.97;5044745;28;20099;-90
2020/12/14 11:16:51;;;;;;;8.63;5.88;;;;;;;8.32;69.32;100117.03;5036800;28;20056;-88
2020/12/14 11:19:35;;;;;;;9.18;6.35;;;;;;;8.45;68.68;100118.25;5055038;28;20168;-87
2020/12/14 11:22:03;;;;;;;9.48;6.28;;;;;;;8.49;68.77;100104.00;5049458;28;20053;-88
2020/12/14 11:24:31;;;;;;;6.97;4.40;;;;;;;8.56;67.85;100099.28;5037252;28;20041;-87
2020/12/14 11:27:14;;;;;;;9.02;5.10;;;;;;;8.74;66.43;100098.50;5037017;28;20041;-88
2020/12/14 11:29:41;;;;;;;9.00;4.95;;;;;;;8.92;66.83;100117.94;5042864;28;20096;-89
2020/12/14 11:32:09;;;;;;;6.80;4.82;;;;;;;8.96;66.69;100117.75;5039105;28;20167;-87
2020/12/14 11:34:39;;;;;;;5.82;3.92;;;;;;;8.83;66.27;100091.94;5033535;28;20061;-89
2020/12/14 11:37:10;;;;;;;6.00;4.18;;;;;;;8.84;67.07;100091.00;5034592;28;20046;-89
2020/12/14 11:39:40;;;;;;;7.68;4.18;;;;;;;8.89;66.88;100094.31;5043629;28;20026;-91
2020/12/14 11:42:10;;;;;;;6.63;4.53;;;;;;;8.85;66.91;100090.09;5055432;28;20056;-89
2020/12/14 11:44:40;;;;;;;7.28;4.82;;;;;;;8.75;66.79;100093.16;5046234;28;20075;-89
2020/12/14 11:47:07;;;;;;;7.15;4.10;;;;;;;8.72;67.30;100090.63;5038428;28;20037;-90